Disclaimer

Please do not use the information listed here in-flight or in-navigation, as they are not provided to us by the airports but are provided by volunteers, so they might be outdated.

Search


Regions


Airport information page

Radio informations:
Approach (APP) - 120.8 MHz

Airport informations:
Latitude: 18° 52' 58.24" S
Longitude: 048° 13' 32.14" W
Elevation: 3094 feet - 943 meters
Operating hours: Remarks
Operating agency: Civil government, landing fees and diplomatic clearance may be required
Timezone: UTC-3(-2DT)
Fuel: Jet A1, without icing nhibitor.

100/130 octane gasoline, leaded, MIL-L-5572F (GREEN)

Runway information:
04/22 - 6398 x 148 feet< - >1950 x 45 meters

Recent METARs:
SBUL 190000Z 02006KT 9999 -RA SCT049 BKN070 20/18 Q1019
SBUL 190100Z 36003KT 9999 SCT049 BKN070 20/18 Q1019
SBUL 190100Z 36003KT 9999 SCT049 BKN070 20/18 Q1019

Airport on the map: